Řízení letového provozu České republiky
Letiste: LKPR Aktualizace: 13.11.2019 21:00:26  UTC
 METAR LKPR 13.11. 21:00 ...
METAR LKPR 132100Z 23007KT 9999 FEW010 02/01 Q1006 NOSIG RMK REG QNH 1002=
 TAF LKPR 13.11. 17:00 ...
TAF LKPR 131700Z 1318/1500 27008KT 9999 BKN030      TEMPO 1318/1320 4000 RA BKN007      PROB30 TEMPO 1318/1320 1200 RASN BR BKN003      BECMG 1322/1402 9999 SCT030      BECMG 1402/1404 12008KT      TEMPO 1409/1500 BKN015=